createdAt,value
2023-05-10T00:00:19.981Z,36.28
2023-05-10T00:01:19.998Z,36.24
2023-05-10T00:02:19.985Z,36.18
2023-05-10T00:03:20.007Z,36.24
2023-05-10T00:04:19.998Z,36.24
2023-05-10T00:05:19.905Z,36.24
2023-05-10T00:06:19.883Z,36.22
2023-05-10T00:07:19.870Z,36.22
2023-05-10T00:08:19.851Z,36.22
2023-05-10T00:09:19.833Z,36.23
2023-05-10T00:10:19.829Z,36.19
2023-05-10T00:11:22.179Z,36.16
2023-05-10T00:12:19.809Z,36.14
2023-05-10T00:13:19.872Z,36.13
2023-05-10T00:14:19.779Z,36.12
2023-05-10T00:15:19.761Z,36.08
2023-05-10T00:16:19.761Z,36.08
2023-05-10T00:17:19.735Z,36.10
2023-05-10T00:18:19.701Z,36.05
2023-05-10T00:19:19.694Z,36.05
2023-05-10T00:20:19.803Z,36.06
2023-05-10T00:21:19.680Z,36.01
2023-05-10T00:22:19.640Z,35.92
2023-05-10T00:23:19.632Z,35.98
2023-05-10T00:24:19.619Z,35.95
2023-05-10T00:25:19.603Z,35.97
2023-05-10T00:26:19.593Z,35.91
2023-05-10T00:27:19.564Z,35.95
2023-05-10T00:28:19.552Z,35.96
2023-05-10T00:29:19.551Z,35.93
2023-05-10T00:30:19.527Z,35.91
2023-05-10T00:31:19.499Z,35.87
2023-05-10T00:32:19.549Z,35.85
2023-05-10T00:33:19.472Z,35.89
2023-05-10T00:34:19.453Z,35.88
2023-05-10T00:35:19.448Z,35.87
2023-05-10T00:36:19.438Z,35.83
2023-05-10T00:37:19.421Z,35.83
2023-05-10T00:38:19.406Z,35.83
2023-05-10T00:39:19.384Z,35.81
2023-05-10T00:40:19.449Z,35.83
2023-05-10T00:41:19.344Z,35.85
2023-05-10T00:42:19.320Z,35.84
2023-05-10T00:43:19.322Z,35.80
2023-05-10T00:44:19.301Z,35.80
2023-05-10T00:45:19.326Z,35.79
2023-05-10T00:46:19.307Z,35.80
2023-05-10T00:47:19.287Z,35.74
2023-05-10T00:48:19.246Z,35.80
2023-05-10T00:49:19.214Z,35.78
2023-05-10T00:50:19.231Z,35.74
2023-05-10T00:51:19.183Z,35.76
2023-05-10T00:52:19.169Z,35.78
2023-05-10T00:53:19.180Z,35.82
2023-05-10T00:54:19.143Z,35.75
2023-05-10T00:55:19.122Z,35.76
2023-05-10T00:56:19.107Z,35.79
2023-05-10T00:57:19.082Z,35.78
2023-05-10T00:58:19.083Z,35.74
2023-05-10T00:59:19.048Z,35.75
2023-05-10T01:00:19.067Z,35.78
2023-05-10T01:01:19.108Z,35.79
2023-05-10T01:02:19.077Z,35.78
2023-05-10T01:03:19.174Z,35.75
2023-05-10T01:04:18.972Z,35.75
2023-05-10T01:05:19.136Z,35.77
2023-05-10T01:06:18.983Z,35.71
2023-05-10T01:07:18.922Z,35.74
2023-05-10T01:08:18.955Z,35.75
2023-05-10T01:09:18.882Z,35.74
2023-05-10T01:10:19.016Z,35.75
2023-05-10T01:11:18.854Z,35.71
2023-05-10T01:12:18.868Z,35.75
2023-05-10T01:13:18.830Z,35.73
2023-05-10T01:14:18.817Z,35.76
2023-05-10T01:15:18.791Z,35.75
2023-05-10T01:16:18.819Z,35.73
2023-05-10T01:17:18.811Z,35.79
2023-05-10T01:18:18.750Z,35.76
2023-05-10T01:19:18.756Z,35.74
2023-05-10T01:20:19.155Z,35.73
2023-05-10T01:21:18.703Z,35.74
2023-05-10T01:22:18.704Z,35.77
2023-05-10T01:23:18.698Z,35.75
2023-05-10T01:24:18.675Z,35.75
2023-05-10T01:25:18.667Z,35.75
2023-05-10T01:26:18.640Z,35.76
2023-05-10T01:27:18.623Z,35.78
2023-05-10T01:28:18.648Z,35.76
2023-05-10T01:29:18.639Z,35.77
2023-05-10T01:30:18.643Z,35.73
2023-05-10T01:31:18.708Z,35.75
2023-05-10T01:32:18.641Z,35.74
2023-05-10T01:33:18.694Z,35.78
2023-05-10T01:34:18.629Z,35.75
2023-05-10T01:35:18.664Z,35.71
2023-05-10T01:36:18.643Z,35.76
2023-05-10T01:37:18.641Z,35.76
2023-05-10T01:38:18.658Z,35.70
2023-05-10T01:39:18.654Z,35.76
2023-05-10T01:40:18.696Z,35.74
2023-05-10T01:41:18.646Z,35.75
2023-05-10T01:42:18.648Z,35.71
2023-05-10T01:43:18.646Z,35.71
2023-05-10T01:44:18.668Z,35.74
2023-05-10T01:45:18.650Z,35.74
2023-05-10T01:46:18.689Z,35.71
2023-05-10T01:47:18.662Z,35.74
2023-05-10T01:48:18.674Z,35.74
2023-05-10T01:49:18.715Z,35.76
2023-05-10T01:50:19.049Z,35.68
2023-05-10T01:51:18.678Z,35.80
2023-05-10T01:52:18.684Z,35.71
2023-05-10T01:53:18.684Z,35.72
2023-05-10T01:54:18.716Z,35.73
2023-05-10T01:55:18.716Z,35.73
2023-05-10T01:56:18.692Z,35.76
2023-05-10T01:57:18.704Z,35.71
2023-05-10T01:58:18.713Z,35.72
2023-05-10T01:59:18.717Z,35.71
2023-05-10T02:00:18.831Z,35.72
2023-05-10T02:01:18.747Z,35.76
2023-05-10T02:02:18.716Z,35.72
2023-05-10T02:03:18.763Z,35.75
2023-05-10T02:04:18.724Z,35.73
2023-05-10T02:05:18.776Z,35.73
2023-05-10T02:06:18.733Z,35.73
2023-05-10T02:07:18.775Z,35.77
2023-05-10T02:08:18.749Z,35.72
2023-05-10T02:09:18.751Z,35.77
2023-05-10T02:10:18.963Z,35.73
2023-05-10T02:11:18.768Z,35.77
2023-05-10T02:12:18.780Z,35.73
2023-05-10T02:13:18.835Z,35.76
2023-05-10T02:14:18.796Z,35.75
2023-05-10T02:15:18.802Z,35.73
2023-05-10T02:16:18.870Z,35.75
2023-05-10T02:17:18.822Z,35.77
2023-05-10T02:18:18.845Z,35.77
2023-05-10T02:19:18.856Z,35.75
2023-05-10T02:20:19.132Z,35.75
2023-05-10T02:21:18.889Z,35.72
2023-05-10T02:22:18.873Z,35.76
2023-05-10T02:23:18.887Z,35.75
2023-05-10T02:24:18.935Z,35.75
2023-05-10T02:25:18.902Z,35.73
2023-05-10T02:26:18.909Z,35.76
2023-05-10T02:27:18.904Z,35.76
2023-05-10T02:28:18.917Z,35.71
2023-05-10T02:29:18.925Z,35.73
2023-05-10T02:30:18.942Z,35.76
2023-05-10T02:31:18.980Z,35.74
2023-05-10T02:32:18.989Z,35.75
2023-05-10T02:33:18.963Z,35.72
2023-05-10T02:34:18.977Z,35.78
2023-05-10T02:35:18.985Z,35.77
2023-05-10T02:36:18.995Z,35.72
2023-05-10T02:37:19.029Z,35.73
2023-05-10T02:38:19.015Z,35.72
2023-05-10T02:39:19.129Z,35.72
2023-05-10T02:40:19.306Z,35.77
2023-05-10T02:41:19.096Z,35.73
2023-05-10T02:42:19.129Z,35.73
2023-05-10T02:43:19.190Z,35.76
2023-05-10T02:44:19.059Z,35.72
2023-05-10T02:45:19.077Z,35.74
2023-05-10T02:46:19.107Z,35.76
2023-05-10T02:47:19.157Z,35.76
2023-05-10T02:48:19.089Z,35.74
2023-05-10T02:49:19.118Z,35.74
2023-05-10T02:50:19.237Z,35.73
2023-05-10T02:51:19.257Z,35.74
2023-05-10T02:52:19.132Z,35.73
2023-05-10T02:53:19.167Z,35.73
2023-05-10T02:54:19.154Z,35.73
2023-05-10T02:55:19.149Z,35.73
2023-05-10T02:56:19.153Z,35.70
2023-05-10T02:57:19.179Z,35.77
2023-05-10T02:58:19.175Z,35.74
2023-05-10T02:59:19.174Z,35.72
2023-05-10T03:00:19.183Z,35.76
2023-05-10T03:01:19.253Z,35.76
2023-05-10T03:02:19.219Z,35.74
2023-05-10T03:03:19.222Z,35.76
2023-05-10T03:04:19.299Z,35.76
2023-05-10T03:05:19.251Z,35.78
2023-05-10T03:06:19.260Z,35.76
2023-05-10T03:07:19.264Z,35.76
2023-05-10T03:08:19.264Z,35.75
2023-05-10T03:09:19.304Z,35.78
2023-05-10T03:10:19.541Z,35.74
2023-05-10T03:11:19.315Z,35.75
2023-05-10T03:12:19.319Z,35.74
2023-05-10T03:13:19.366Z,35.73
2023-05-10T03:14:19.334Z,35.78
2023-05-10T03:15:19.358Z,35.77
2023-05-10T03:16:19.429Z,35.78
2023-05-10T03:17:19.374Z,35.79
2023-05-10T03:18:19.378Z,35.79
2023-05-10T03:19:19.429Z,35.74
2023-05-10T03:20:19.402Z,35.77
2023-05-10T03:21:19.788Z,35.75
2023-05-10T03:22:19.801Z,35.77
2023-05-10T03:23:19.830Z,35.74
2023-05-10T03:24:19.835Z,35.76
2023-05-10T03:25:19.878Z,35.77
2023-05-10T03:26:19.856Z,35.81
2023-05-10T03:27:19.846Z,35.78
2023-05-10T03:28:19.832Z,35.77
2023-05-10T03:29:19.839Z,35.74
2023-05-10T03:30:19.850Z,35.75
2023-05-10T03:31:19.866Z,35.76
2023-05-10T03:32:19.840Z,35.74
2023-05-10T03:33:19.841Z,35.79
2023-05-10T03:34:19.847Z,35.74
2023-05-10T03:35:19.851Z,35.75
2023-05-10T03:36:19.839Z,35.77
2023-05-10T03:37:19.846Z,35.75
2023-05-10T03:38:19.841Z,35.74
2023-05-10T03:39:19.848Z,35.78
2023-05-10T03:40:20.016Z,35.74
2023-05-10T03:41:19.876Z,35.80
2023-05-10T03:42:19.854Z,35.76
2023-05-10T03:43:19.849Z,35.83
2023-05-10T03:44:19.853Z,35.80
2023-05-10T03:45:19.854Z,35.75
2023-05-10T03:46:19.853Z,35.74
2023-05-10T03:47:19.851Z,35.75
2023-05-10T03:48:19.743Z,35.79
2023-05-10T03:49:19.751Z,35.78
2023-05-10T03:50:20.055Z,35.78
2023-05-10T03:51:19.794Z,35.79
2023-05-10T03:52:19.787Z,35.75
2023-05-10T03:53:19.793Z,35.80
2023-05-10T03:54:19.811Z,35.80
2023-05-10T03:55:19.807Z,35.75
2023-05-10T03:56:19.821Z,35.80
2023-05-10T03:57:20.021Z,35.75
2023-05-10T03:58:19.855Z,35.77
2023-05-10T03:59:19.871Z,35.77
2023-05-10T04:00:20.026Z,35.80
2023-05-10T04:01:19.934Z,35.75
2023-05-10T04:02:19.970Z,35.79
2023-05-10T04:03:19.977Z,35.76
2023-05-10T04:04:20.118Z,35.81
2023-05-10T04:05:19.994Z,35.78
2023-05-10T04:06:20.035Z,35.77
2023-05-10T04:07:20.011Z,35.82
2023-05-10T04:08:20.006Z,35.83
2023-05-10T04:09:20.032Z,35.80
2023-05-10T04:10:20.153Z,35.78
2023-05-10T04:11:20.064Z,35.78
2023-05-10T04:12:20.070Z,35.81
2023-05-10T04:13:20.141Z,35.83
2023-05-10T04:14:20.093Z,35.84
2023-05-10T04:15:20.098Z,35.78
2023-05-10T04:16:20.154Z,35.83
2023-05-10T04:17:20.177Z,35.76
2023-05-10T04:18:20.144Z,35.78
2023-05-10T04:19:20.160Z,35.77
2023-05-10T04:20:20.182Z,35.81
2023-05-10T04:21:20.189Z,35.84
2023-05-10T04:22:20.186Z,35.81
2023-05-10T04:23:20.213Z,35.80
2023-05-10T04:24:20.213Z,35.82
2023-05-10T04:25:20.235Z,35.83
2023-05-10T04:26:20.248Z,35.85
2023-05-10T04:27:20.255Z,35.76
2023-05-10T04:28:20.270Z,35.80
2023-05-10T04:29:20.314Z,35.86
2023-05-10T04:30:20.302Z,35.80
2023-05-10T04:31:20.460Z,35.81
2023-05-10T04:32:20.332Z,35.84
2023-05-10T04:33:20.340Z,35.82
2023-05-10T04:34:20.364Z,35.81
2023-05-10T04:35:20.382Z,35.81
2023-05-10T04:36:20.405Z,35.84
2023-05-10T04:37:20.405Z,35.87
2023-05-10T04:38:20.427Z,35.84
2023-05-10T04:39:20.466Z,35.82
2023-05-10T04:40:20.461Z,35.81
2023-05-10T04:41:20.478Z,35.82
2023-05-10T04:42:20.516Z,35.84
2023-05-10T04:43:20.540Z,35.83
2023-05-10T04:44:20.560Z,35.84
2023-05-10T04:45:20.603Z,35.82
2023-05-10T04:46:20.654Z,35.81
2023-05-10T04:47:20.630Z,35.84
2023-05-10T04:48:20.609Z,35.86
2023-05-10T04:49:20.629Z,35.86
2023-05-10T04:50:20.641Z,35.84
2023-05-10T04:51:20.693Z,35.84
2023-05-10T04:52:20.690Z,35.85
2023-05-10T04:53:20.719Z,35.87
2023-05-10T04:54:20.725Z,35.80
2023-05-10T04:55:20.758Z,35.87
2023-05-10T04:56:20.787Z,35.86
2023-05-10T04:57:20.811Z,35.85
2023-05-10T04:58:20.807Z,35.85
2023-05-10T04:59:20.830Z,35.84
2023-05-10T05:00:20.867Z,35.85
2023-05-10T05:01:20.931Z,35.85
2023-05-10T05:02:20.913Z,35.86
2023-05-10T05:03:20.987Z,35.84
2023-05-10T05:04:20.925Z,35.86
2023-05-10T05:05:20.932Z,35.87
2023-05-10T05:06:20.950Z,35.81
2023-05-10T05:07:20.969Z,35.86
2023-05-10T05:08:20.995Z,35.81
2023-05-10T05:09:21.017Z,35.86
2023-05-10T05:10:21.040Z,35.85
2023-05-10T05:11:21.039Z,35.87
2023-05-10T05:12:21.053Z,35.82
2023-05-10T05:13:21.143Z,35.87
2023-05-10T05:14:21.099Z,35.87
2023-05-10T05:15:21.109Z,35.87
2023-05-10T05:16:21.151Z,35.87
2023-05-10T05:17:21.172Z,35.84
2023-05-10T05:18:21.175Z,35.85
2023-05-10T05:19:21.332Z,35.85
2023-05-10T05:20:21.206Z,35.86
2023-05-10T05:21:21.409Z,35.87
2023-05-10T05:22:21.242Z,35.84
2023-05-10T05:23:21.263Z,35.85
2023-05-10T05:24:21.271Z,35.87
2023-05-10T05:25:21.304Z,35.85
2023-05-10T05:26:21.330Z,35.89
2023-05-10T05:27:21.334Z,35.86
2023-05-10T05:28:21.357Z,35.87
2023-05-10T05:29:21.375Z,35.89
2023-05-10T05:30:21.401Z,35.90
2023-05-10T05:31:21.440Z,35.85
2023-05-10T05:32:21.431Z,35.87
2023-05-10T05:33:21.478Z,35.89
2023-05-10T05:34:21.501Z,35.86
2023-05-10T05:35:21.496Z,35.87
2023-05-10T05:36:21.502Z,35.85
2023-05-10T05:37:21.525Z,35.82
2023-05-10T05:38:21.551Z,35.82
2023-05-10T05:39:21.570Z,35.89
2023-05-10T05:40:21.843Z,35.90
2023-05-10T05:41:21.602Z,35.86
2023-05-10T05:42:21.622Z,35.84
2023-05-10T05:43:21.646Z,35.82
2023-05-10T05:44:21.659Z,35.85
2023-05-10T05:45:21.849Z,35.85
2023-05-10T05:46:21.747Z,35.89
2023-05-10T05:47:21.727Z,35.91
2023-05-10T05:48:21.744Z,35.86
2023-05-10T05:49:29.270Z,35.86
2023-05-10T05:50:21.840Z,35.88
2023-05-10T05:51:22.349Z,35.91
2023-05-10T05:52:21.740Z,35.91
2023-05-10T05:53:21.767Z,35.90
2023-05-10T05:54:21.843Z,35.87
2023-05-10T05:55:21.695Z,35.89
2023-05-10T05:56:21.678Z,35.94
2023-05-10T05:57:21.696Z,35.89
2023-05-10T05:58:21.869Z,35.86
2023-05-10T05:59:21.634Z,35.85
2023-05-10T06:00:21.848Z,35.86
2023-05-10T06:01:21.643Z,35.89
2023-05-10T06:02:21.741Z,35.89
2023-05-10T06:03:21.700Z,35.90
2023-05-10T06:04:21.903Z,35.86
2023-05-10T06:05:22.215Z,35.95
2023-05-10T06:06:21.567Z,35.89
2023-05-10T06:07:22.243Z,35.84
2023-05-10T06:08:21.555Z,35.86
2023-05-10T06:09:24.753Z,35.86
2023-05-10T06:10:21.520Z,35.89
2023-05-10T06:11:21.501Z,35.89
2023-05-10T06:12:22.168Z,35.90
2023-05-10T06:13:21.572Z,35.86
2023-05-10T06:14:21.859Z,35.87
2023-05-10T06:15:21.853Z,35.86
2023-05-10T06:16:21.464Z,35.89
2023-05-10T06:17:21.423Z,35.89
2023-05-10T06:18:21.435Z,35.87
2023-05-10T06:19:21.421Z,35.87
2023-05-10T06:20:21.870Z,35.89
2023-05-10T06:21:21.449Z,35.85
2023-05-10T06:22:21.358Z,35.85
2023-05-10T06:23:21.336Z,35.85
2023-05-10T06:24:21.365Z,35.83
2023-05-10T06:25:21.319Z,35.85
2023-05-10T06:26:21.455Z,35.86
2023-05-10T06:27:21.329Z,35.86
2023-05-10T06:28:21.279Z,35.85
2023-05-10T06:29:21.361Z,35.82
2023-05-10T06:30:21.334Z,35.84
2023-05-10T06:31:21.275Z,35.93
2023-05-10T06:32:36.877Z,35.95
2023-05-10T06:33:21.186Z,35.95
2023-05-10T06:34:21.367Z,35.96
2023-05-10T06:35:21.159Z,35.96
2023-05-10T06:36:21.131Z,36.04
2023-05-10T06:37:21.181Z,36.01
2023-05-10T06:38:21.103Z,35.94
2023-05-10T06:39:21.370Z,36.03
2023-05-10T06:40:21.069Z,36.03
2023-05-10T06:41:22.560Z,36.01
2023-05-10T06:42:21.023Z,35.98
2023-05-10T06:43:21.021Z,36.02
2023-05-10T06:44:20.986Z,35.97
2023-05-10T06:45:21.414Z,36.01
2023-05-10T06:46:20.987Z,36.05
2023-05-10T06:47:20.933Z,36.07
2023-05-10T06:48:20.949Z,36.06
2023-05-10T06:49:21.365Z,36.04
2023-05-10T06:50:21.381Z,36.02
2023-05-10T06:51:20.868Z,36.04
2023-05-10T06:52:20.844Z,36.06
2023-05-10T06:53:20.856Z,36.09
2023-05-10T06:54:28.281Z,36.04
2023-05-10T06:55:24.083Z,36.06
2023-05-10T06:56:20.771Z,36.05
2023-05-10T06:57:31.358Z,36.02
2023-05-10T06:58:20.759Z,36.06
2023-05-10T06:59:20.740Z,36.06
2023-05-10T07:00:24.014Z,36.06
2023-05-10T07:01:20.801Z,36.08
2023-05-10T07:02:20.784Z,36.08
2023-05-10T07:03:20.701Z,36.13
2023-05-10T07:04:20.643Z,36.14
2023-05-10T07:05:21.235Z,36.22
2023-05-10T07:06:32.247Z,36.20
2023-05-10T07:07:20.565Z,36.40
2023-05-10T07:08:20.558Z,36.34
2023-05-10T07:09:20.570Z,36.36
2023-05-10T07:10:20.885Z,36.37
2023-05-10T07:11:20.488Z,36.40
2023-05-10T07:12:20.515Z,36.39
2023-05-10T07:13:20.602Z,36.40
2023-05-10T07:14:20.879Z,36.36
2023-05-10T07:15:20.411Z,36.38
2023-05-10T07:16:21.001Z,36.48
2023-05-10T07:17:20.440Z,36.46
2023-05-10T07:18:20.372Z,36.46
2023-05-10T07:19:21.339Z,36.46
2023-05-10T07:20:20.319Z,36.48
2023-05-10T07:21:20.394Z,36.47
2023-05-10T07:22:20.295Z,36.54
2023-05-10T07:23:20.264Z,36.51
2023-05-10T07:24:21.230Z,36.53
2023-05-10T07:25:21.077Z,36.49
2023-05-10T07:26:20.199Z,36.60
2023-05-10T07:27:20.179Z,36.59
2023-05-10T07:28:20.164Z,36.58
2023-05-10T07:29:20.400Z,36.60
2023-05-10T07:30:20.202Z,36.59
2023-05-10T07:31:20.120Z,37.39
2023-05-10T07:32:20.442Z,36.99
2023-05-10T07:33:20.125Z,36.87
2023-05-10T07:34:20.106Z,36.85
2023-05-10T07:35:20.396Z,36.78
2023-05-10T07:36:20.097Z,36.64
2023-05-10T07:37:20.025Z,36.90
2023-05-10T07:38:20.008Z,36.94
2023-05-10T07:39:26.453Z,37.03
2023-05-10T07:40:20.412Z,37.09
2023-05-10T07:41:20.006Z,37.07
2023-05-10T07:42:19.931Z,37.29
2023-05-10T07:43:20.055Z,37.48
2023-05-10T07:44:22.426Z,37.72
2023-05-10T07:45:19.936Z,37.47
2023-05-10T07:46:19.948Z,37.57
2023-05-10T07:47:20.034Z,37.78
2023-05-10T07:48:19.813Z,37.97
2023-05-10T07:49:20.772Z,38.17
2023-05-10T07:50:19.921Z,37.99
2023-05-10T07:51:19.800Z,38.13
2023-05-10T07:52:21.316Z,38.38
2023-05-10T07:53:19.695Z,38.93
2023-05-10T07:54:19.659Z,39.16
2023-05-10T07:55:19.630Z,38.77
2023-05-10T07:56:20.651Z,39.26
2023-05-10T07:57:19.598Z,39.18
2023-05-10T07:58:20.049Z,39.08
2023-05-10T07:59:19.543Z,39.15
2023-05-10T08:00:19.524Z,39.14
2023-05-10T08:01:19.506Z,39.22
2023-05-10T08:02:19.500Z,39.27
2023-05-10T08:03:19.641Z,39.30
2023-05-10T08:04:19.516Z,39.43
2023-05-10T08:05:20.020Z,39.50
2023-05-10T08:06:19.555Z,39.28
2023-05-10T08:07:19.898Z,39.47
2023-05-10T08:08:19.580Z,39.72
2023-05-10T08:09:19.571Z,39.85
2023-05-10T08:10:19.602Z,39.94
2023-05-10T08:11:19.626Z,39.92
2023-05-10T08:12:19.995Z,40.30
2023-05-10T08:13:19.729Z,40.45
2023-05-10T08:14:20.352Z,40.27
2023-05-10T08:15:19.858Z,40.21
2023-05-10T08:16:20.060Z,40.14
2023-05-10T08:17:20.109Z,40.16
2023-05-10T08:18:22.057Z,40.32
2023-05-10T08:19:19.718Z,40.25
2023-05-10T08:20:19.920Z,40.27
2023-05-10T08:21:19.965Z,40.51
2023-05-10T08:22:19.678Z,40.58
2023-05-10T08:23:19.671Z,40.48
2023-05-10T08:24:19.590Z,40.54
2023-05-10T08:25:20.132Z,40.56
2023-05-10T08:26:19.538Z,40.57
2023-05-10T08:27:19.516Z,40.67
2023-05-10T08:28:19.493Z,40.62
2023-05-10T08:29:19.469Z,40.62
2023-05-10T08:30:19.919Z,40.77
2023-05-10T08:31:19.473Z,40.87
2023-05-10T08:32:19.350Z,40.86
2023-05-10T08:33:19.897Z,40.82
2023-05-10T08:34:19.316Z,40.78
2023-05-10T08:35:19.410Z,40.78
2023-05-10T08:36:19.235Z,41.10
2023-05-10T08:37:19.212Z,41.01
2023-05-10T08:38:19.189Z,41.04
2023-05-10T08:39:29.322Z,41.02
2023-05-10T08:40:19.432Z,40.87
2023-05-10T08:41:19.443Z,40.79
2023-05-10T08:42:51.234Z,40.83
2023-05-10T08:43:20.058Z,40.92
2023-05-10T08:44:19.068Z,41.27
2023-05-10T08:45:19.719Z,41.08
2023-05-10T08:46:19.096Z,40.94
2023-05-10T08:47:18.932Z,40.74
2023-05-10T08:48:18.898Z,40.72
2023-05-10T08:49:18.847Z,40.47
2023-05-10T08:50:18.908Z,40.20
2023-05-10T08:51:18.810Z,40.11
2023-05-10T08:52:21.938Z,40.40
2023-05-10T08:53:18.714Z,40.30
2023-05-10T08:54:18.709Z,40.49
2023-05-10T08:55:19.071Z,40.40
2023-05-10T08:56:18.651Z,40.40
2023-05-10T08:57:18.601Z,40.43
2023-05-10T08:58:22.122Z,40.34
2023-05-10T08:59:18.536Z,40.31
2023-05-10T09:00:18.511Z,40.29
2023-05-10T09:01:18.566Z,40.22
2023-05-10T09:02:18.875Z,40.21
2023-05-10T09:03:18.428Z,40.32
2023-05-10T09:04:18.637Z,40.33
2023-05-10T09:05:18.703Z,40.26
2023-05-10T09:06:18.360Z,40.28
2023-05-10T09:07:18.334Z,40.26
2023-05-10T09:08:18.306Z,40.26
2023-05-10T09:09:18.274Z,40.22
2023-05-10T09:10:18.428Z,40.26
2023-05-10T09:11:18.243Z,40.29
2023-05-10T09:12:18.197Z,40.28
2023-05-10T09:13:18.209Z,40.27
2023-05-10T09:14:18.163Z,40.12
2023-05-10T09:15:18.724Z,40.19
2023-05-10T09:16:21.966Z,40.14
2023-05-10T09:17:18.187Z,40.07
2023-05-10T09:18:18.125Z,40.11
2023-05-10T09:19:18.010Z,40.02
2023-05-10T09:20:17.990Z,40.02
2023-05-10T09:21:18.012Z,39.97
2023-05-10T09:22:17.959Z,39.98
2023-05-10T09:23:17.992Z,39.94
2023-05-10T09:24:18.048Z,39.98
2023-05-10T09:25:18.763Z,39.95
2023-05-10T09:26:18.030Z,39.99
2023-05-10T09:27:18.049Z,39.93
2023-05-10T09:28:18.056Z,39.88
2023-05-10T09:29:18.448Z,39.82
2023-05-10T09:30:18.151Z,39.76
2023-05-10T09:31:18.171Z,39.85
2023-05-10T09:32:18.120Z,39.84
2023-05-10T09:33:18.161Z,39.79
2023-05-10T09:34:18.435Z,39.85
2023-05-10T09:35:18.522Z,39.76
2023-05-10T09:36:18.447Z,39.65
2023-05-10T09:37:18.228Z,39.81
2023-05-10T09:38:18.428Z,39.77
2023-05-10T09:39:18.270Z,39.69
2023-05-10T09:40:18.336Z,39.70
2023-05-10T09:41:18.301Z,39.69
2023-05-10T09:42:18.440Z,39.74
2023-05-10T09:43:18.430Z,39.65
2023-05-10T09:44:18.356Z,39.66
2023-05-10T09:45:18.625Z,39.71
2023-05-10T09:46:18.431Z,39.78
2023-05-10T09:47:18.455Z,39.69
2023-05-10T09:48:18.445Z,39.68
2023-05-10T09:49:18.489Z,39.57
2023-05-10T09:50:18.532Z,39.57
2023-05-10T09:51:18.507Z,39.62
2023-05-10T09:52:18.524Z,39.57
2023-05-10T09:53:18.538Z,39.55
2023-05-10T09:54:18.965Z,39.42
2023-05-10T09:55:18.725Z,39.60
2023-05-10T09:56:26.043Z,39.80
2023-05-10T09:57:18.578Z,40.91
2023-05-10T09:58:18.553Z,39.89
2023-05-10T09:59:18.520Z,39.93
2023-05-10T10:00:18.519Z,39.97
2023-05-10T10:01:18.966Z,40.76
2023-05-10T10:02:19.433Z,40.16
2023-05-10T10:03:18.492Z,40.34
2023-05-10T10:04:18.419Z,40.12
2023-05-10T10:05:18.625Z,40.13
2023-05-10T10:06:29.125Z,40.06
2023-05-10T10:07:18.284Z,39.79
2023-05-10T10:08:18.436Z,39.51
2023-05-10T10:09:18.226Z,38.91
2023-05-10T10:10:18.447Z,38.52
2023-05-10T10:11:18.169Z,38.33
2023-05-10T10:12:18.151Z,38.22
2023-05-10T10:13:18.124Z,38.11
2023-05-10T10:14:18.079Z,38.02
2023-05-10T10:15:18.579Z,37.97
2023-05-10T10:16:18.526Z,37.85
2023-05-10T10:17:17.993Z,38.06
2023-05-10T10:18:18.000Z,37.99
2023-05-10T10:19:17.948Z,37.90
2023-05-10T10:20:18.206Z,37.94
2023-05-10T10:21:18.005Z,37.88
2023-05-10T10:22:17.860Z,37.96
2023-05-10T10:23:18.040Z,37.87
2023-05-10T10:24:17.817Z,37.90
2023-05-10T10:25:18.387Z,37.90
2023-05-10T10:26:17.962Z,37.85
2023-05-10T10:27:17.739Z,37.94
2023-05-10T10:28:17.715Z,37.89
2023-05-10T10:29:18.714Z,38.05
2023-05-10T10:30:17.752Z,39.09
2023-05-10T10:31:18.589Z,38.49
2023-05-10T10:32:17.791Z,38.49
2023-05-10T10:33:27.868Z,38.73
2023-05-10T10:34:17.771Z,38.83
2023-05-10T10:35:17.969Z,38.97
2023-05-10T10:36:18.115Z,39.03
2023-05-10T10:37:17.707Z,39.01
2023-05-10T10:38:17.646Z,39.09
2023-05-10T10:39:17.985Z,39.11
2023-05-10T10:40:17.597Z,39.16
2023-05-10T10:41:17.571Z,39.14
2023-05-10T10:42:17.533Z,39.24
2023-05-10T10:43:17.517Z,39.34
2023-05-10T10:44:18.130Z,39.27
2023-05-10T10:45:17.628Z,39.32
2023-05-10T10:46:17.446Z,39.20
2023-05-10T10:47:17.383Z,39.39
2023-05-10T10:48:17.347Z,39.29
2023-05-10T10:49:17.320Z,39.33
2023-05-10T10:50:17.351Z,39.34
2023-05-10T10:51:17.458Z,39.39
2023-05-10T10:52:17.213Z,39.36
2023-05-10T10:53:17.218Z,39.36
2023-05-10T10:54:17.123Z,39.43
2023-05-10T10:55:17.290Z,39.40
2023-05-10T10:56:17.048Z,39.38
2023-05-10T10:57:17.120Z,39.39
2023-05-10T10:58:16.968Z,39.38
2023-05-10T10:59:16.941Z,39.50
2023-05-10T11:00:16.890Z,39.52
2023-05-10T11:01:16.911Z,39.59
2023-05-10T11:02:16.809Z,39.61
2023-05-10T11:03:16.795Z,39.61
2023-05-10T11:04:17.122Z,39.64
2023-05-10T11:05:17.258Z,39.69
2023-05-10T11:06:16.685Z,39.64
2023-05-10T11:07:16.632Z,39.71
2023-05-10T11:08:16.591Z,39.69
2023-05-10T11:09:16.573Z,39.70
2023-05-10T11:10:17.118Z,39.52
2023-05-10T11:11:16.489Z,39.56
2023-05-10T11:12:16.439Z,39.01
2023-05-10T11:13:16.403Z,38.57
2023-05-10T11:14:16.359Z,38.98
2023-05-10T11:15:16.529Z,38.49
2023-05-10T11:16:16.317Z,38.36
2023-05-10T11:17:16.309Z,38.57
2023-05-10T11:18:16.257Z,38.45
2023-05-10T11:19:16.237Z,38.52
2023-05-10T11:20:16.611Z,38.61
2023-05-10T11:21:16.170Z,38.71
2023-05-10T11:22:16.138Z,38.76
2023-05-10T11:23:16.124Z,38.72
2023-05-10T11:24:16.109Z,38.96
2023-05-10T11:25:17.093Z,38.91
2023-05-10T11:26:16.051Z,38.96
2023-05-10T11:27:16.013Z,38.93
2023-05-10T11:28:16.004Z,39.02
2023-05-10T11:29:15.986Z,39.06
2023-05-10T11:30:16.292Z,39.10
2023-05-10T11:31:16.006Z,39.20
2023-05-10T11:32:15.917Z,39.24
2023-05-10T11:33:15.898Z,39.20
2023-05-10T11:34:15.884Z,39.23
2023-05-10T11:35:15.870Z,39.24
2023-05-10T11:36:16.464Z,39.25
2023-05-10T11:37:15.839Z,39.33
2023-05-10T11:38:15.827Z,39.31
2023-05-10T11:39:15.809Z,39.33
2023-05-10T11:40:16.088Z,39.36
2023-05-10T11:41:15.823Z,39.37
2023-05-10T11:42:15.773Z,39.33
2023-05-10T11:43:15.989Z,39.41
2023-05-10T11:44:15.742Z,39.43
2023-05-10T11:45:15.791Z,39.38
2023-05-10T11:46:15.790Z,39.47
2023-05-10T11:47:15.722Z,39.41
2023-05-10T11:48:15.831Z,39.43
2023-05-10T11:49:15.693Z,39.47
2023-05-10T11:50:16.005Z,39.48
2023-05-10T11:51:15.677Z,39.54
2023-05-10T11:52:15.668Z,39.68
2023-05-10T11:53:16.437Z,39.67
2023-05-10T11:54:15.631Z,39.27
2023-05-10T11:55:15.633Z,39.15
2023-05-10T11:56:15.621Z,39.21
2023-05-10T11:57:15.633Z,39.27
2023-05-10T11:58:15.608Z,39.18
2023-05-10T11:59:15.587Z,39.43
2023-05-10T12:00:15.796Z,39.53
2023-05-10T12:01:16.038Z,39.62
2023-05-10T12:02:15.778Z,39.77
2023-05-10T12:03:15.727Z,39.94
2023-05-10T12:04:15.700Z,39.62
2023-05-10T12:05:15.591Z,39.82
2023-05-10T12:06:15.541Z,39.53
2023-05-10T12:07:15.531Z,39.65
2023-05-10T12:08:15.503Z,39.44
2023-05-10T12:09:15.493Z,39.41
2023-05-10T12:10:16.012Z,39.43
2023-05-10T12:11:15.469Z,39.48
2023-05-10T12:12:15.459Z,39.48
2023-05-10T12:13:18.704Z,39.40
2023-05-10T12:14:15.421Z,39.55
2023-05-10T12:15:15.393Z,39.31
2023-05-10T12:16:15.516Z,39.30
2023-05-10T12:17:15.340Z,39.36
2023-05-10T12:18:15.356Z,39.30
2023-05-10T12:19:15.288Z,39.42
2023-05-10T12:20:15.683Z,39.40
2023-05-10T12:21:15.236Z,39.18
2023-05-10T12:22:15.498Z,39.10
2023-05-10T12:23:15.171Z,39.34
2023-05-10T12:24:15.141Z,39.16
2023-05-10T12:25:15.126Z,39.12
2023-05-10T12:26:15.085Z,39.02
2023-05-10T12:27:15.054Z,39.06
2023-05-10T12:28:15.029Z,39.01
2023-05-10T12:29:15.021Z,39.01
2023-05-10T12:30:15.108Z,38.99
2023-05-10T12:31:14.953Z,38.96
2023-05-10T12:32:15.000Z,39.14
2023-05-10T12:33:14.938Z,38.97
2023-05-10T12:34:14.890Z,39.00
2023-05-10T12:35:14.845Z,38.95
2023-05-10T12:36:18.048Z,39.01
2023-05-10T12:37:14.820Z,38.90
2023-05-10T12:38:14.757Z,39.03
2023-05-10T12:39:14.724Z,38.98
2023-05-10T12:40:14.862Z,39.12
2023-05-10T12:41:14.792Z,38.96
2023-05-10T12:42:14.634Z,38.99
2023-05-10T12:43:14.619Z,39.00
2023-05-10T12:44:14.585Z,39.05
2023-05-10T12:45:14.574Z,39.15
2023-05-10T12:46:14.575Z,39.14
2023-05-10T12:47:14.489Z,39.11
2023-05-10T12:48:14.444Z,38.96
2023-05-10T12:49:14.412Z,39.01
2023-05-10T12:50:14.644Z,39.20
2023-05-10T12:51:14.352Z,39.01
2023-05-10T12:52:14.327Z,39.10